sensor_id;sensor_type;location;lat;lon;timestamp;P1;durP1;ratioP1;P2;durP2;ratioP2
50128;SDS011;36026;45.478;9.224;2023-02-28T00:02:43;11.98;;;6.75;;
50128;SDS011;36026;45.478;9.224;2023-02-28T00:05:45;12.05;;;7.30;;
50128;SDS011;36026;45.478;9.224;2023-02-28T00:08:52;13.07;;;7.22;;
50128;SDS011;36026;45.478;9.224;2023-02-28T00:15:18;11.48;;;6.32;;
50128;SDS011;36026;45.478;9.224;2023-02-28T00:18:21;9.55;;;5.63;;
50128;SDS011;36026;45.478;9.224;2023-02-28T00:21:26;9.70;;;6.18;;
50128;SDS011;36026;45.478;9.224;2023-02-28T00:24:28;9.68;;;5.60;;
50128;SDS011;36026;45.478;9.224;2023-02-28T00:27:32;8.00;;;5.38;;
50128;SDS011;36026;45.478;9.224;2023-02-28T00:30:35;12.00;;;5.40;;
50128;SDS011;36026;45.478;9.224;2023-02-28T00:33:37;7.68;;;4.82;;
50128;SDS011;36026;45.478;9.224;2023-02-28T00:36:39;28.48;;;12.82;;
50128;SDS011;36026;45.478;9.224;2023-02-28T00:39:45;97.63;;;42.67;;
50128;SDS011;36026;45.478;9.224;2023-02-28T00:42:48;34.30;;;16.65;;
50128;SDS011;36026;45.478;9.224;2023-02-28T00:45:50;77.20;;;34.28;;
50128;SDS011;36026;45.478;9.224;2023-02-28T00:48:53;10.98;;;7.35;;
50128;SDS011;36026;45.478;9.224;2023-02-28T00:51:55;10.57;;;5.50;;
50128;SDS011;36026;45.478;9.224;2023-02-28T00:54:57;9.13;;;5.40;;
50128;SDS011;36026;45.478;9.224;2023-02-28T00:58:01;8.50;;;5.10;;
50128;SDS011;36026;45.478;9.224;2023-02-28T01:01:08;8.63;;;5.47;;
50128;SDS011;36026;45.478;9.224;2023-02-28T01:04:28;10.43;;;5.43;;
50128;SDS011;36026;45.478;9.224;2023-02-28T01:07:30;7.65;;;4.80;;
50128;SDS011;36026;45.478;9.224;2023-02-28T01:10:36;8.57;;;5.65;;
50128;SDS011;36026;45.478;9.224;2023-02-28T01:13:43;10.07;;;5.57;;
50128;SDS011;36026;45.478;9.224;2023-02-28T01:16:46;7.53;;;5.03;;
50128;SDS011;36026;45.478;9.224;2023-02-28T01:19:48;10.65;;;5.30;;
50128;SDS011;36026;45.478;9.224;2023-02-28T01:22:50;9.95;;;6.20;;
50128;SDS011;36026;45.478;9.224;2023-02-28T01:25:54;13.05;;;6.43;;
50128;SDS011;36026;45.478;9.224;2023-02-28T01:28:57;9.63;;;5.40;;
50128;SDS011;36026;45.478;9.224;2023-02-28T01:31:59;9.87;;;5.43;;
50128;SDS011;36026;45.478;9.224;2023-02-28T01:39:00;10.55;;;5.65;;
50128;SDS011;36026;45.478;9.224;2023-02-28T01:42:02;10.15;;;5.97;;
50128;SDS011;36026;45.478;9.224;2023-02-28T01:45:14;9.85;;;6.05;;
50128;SDS011;36026;45.478;9.224;2023-02-28T01:48:25;9.15;;;6.03;;
50128;SDS011;36026;45.478;9.224;2023-02-28T01:51:29;10.27;;;5.60;;
50128;SDS011;36026;45.478;9.224;2023-02-28T01:54:54;10.77;;;5.18;;
50128;SDS011;36026;45.478;9.224;2023-02-28T01:57:58;9.77;;;5.50;;
50128;SDS011;36026;45.478;9.224;2023-02-28T02:01:04;8.35;;;5.40;;
50128;SDS011;36026;45.478;9.224;2023-02-28T02:04:06;9.55;;;5.78;;
50128;SDS011;36026;45.478;9.224;2023-02-28T02:07:11;7.88;;;5.53;;
50128;SDS011;36026;45.478;9.224;2023-02-28T02:10:26;8.88;;;5.68;;
50128;SDS011;36026;45.478;9.224;2023-02-28T02:13:38;7.55;;;5.03;;
50128;SDS011;36026;45.478;9.224;2023-02-28T02:16:54;7.82;;;5.40;;
50128;SDS011;36026;45.478;9.224;2023-02-28T02:27:16;10.57;;;5.60;;
50128;SDS011;36026;45.478;9.224;2023-02-28T02:37:35;10.00;;;6.13;;
50128;SDS011;36026;45.478;9.224;2023-02-28T02:40:42;10.68;;;5.38;;
50128;SDS011;36026;45.478;9.224;2023-02-28T02:43:47;8.57;;;5.70;;
50128;SDS011;36026;45.478;9.224;2023-02-28T02:46:51;7.78;;;5.57;;
50128;SDS011;36026;45.478;9.224;2023-02-28T02:49:57;10.30;;;4.95;;
50128;SDS011;36026;45.478;9.224;2023-02-28T02:53:01;9.65;;;6.03;;
50128;SDS011;36026;45.478;9.224;2023-02-28T02:56:05;8.02;;;5.55;;
50128;SDS011;36026;45.478;9.224;2023-02-28T02:59:09;7.40;;;4.88;;
50128;SDS011;36026;45.478;9.224;2023-02-28T03:02:53;10.25;;;5.45;;
50128;SDS011;36026;45.478;9.224;2023-02-28T03:06:04;9.02;;;5.40;;
50128;SDS011;36026;45.478;9.224;2023-02-28T03:09:25;8.05;;;5.38;;
50128;SDS011;36026;45.478;9.224;2023-02-28T03:12:30;8.32;;;4.97;;
50128;SDS011;36026;45.478;9.224;2023-02-28T03:15:53;11.32;;;5.38;;
50128;SDS011;36026;45.478;9.224;2023-02-28T03:19:03;8.40;;;5.77;;
50128;SDS011;36026;45.478;9.224;2023-02-28T03:22:37;11.00;;;6.00;;
50128;SDS011;36026;45.478;9.224;2023-02-28T03:25:56;9.75;;;5.82;;
50128;SDS011;36026;45.478;9.224;2023-02-28T03:29:02;12.07;;;6.38;;
50128;SDS011;36026;45.478;9.224;2023-02-28T03:35:58;8.40;;;5.18;;
50128;SDS011;36026;45.478;9.224;2023-02-28T03:42:37;10.45;;;5.38;;
50128;SDS011;36026;45.478;9.224;2023-02-28T03:45:41;9.70;;;5.55;;
50128;SDS011;36026;45.478;9.224;2023-02-28T03:48:52;8.18;;;5.40;;
50128;SDS011;36026;45.478;9.224;2023-02-28T03:52:08;8.45;;;5.22;;
50128;SDS011;36026;45.478;9.224;2023-02-28T03:55:12;8.65;;;5.75;;
50128;SDS011;36026;45.478;9.224;2023-02-28T03:58:16;8.63;;;5.45;;
50128;SDS011;36026;45.478;9.224;2023-02-28T04:01:25;13.02;;;6.00;;
50128;SDS011;36026;45.478;9.224;2023-02-28T04:04:32;8.85;;;5.22;;
50128;SDS011;36026;45.478;9.224;2023-02-28T04:07:34;10.18;;;5.90;;
50128;SDS011;36026;45.478;9.224;2023-02-28T04:10:37;10.23;;;5.55;;
50128;SDS011;36026;45.478;9.224;2023-02-28T04:13:49;11.15;;;5.90;;
50128;SDS011;36026;45.478;9.224;2023-02-28T04:16:51;8.93;;;5.35;;
50128;SDS011;36026;45.478;9.224;2023-02-28T04:19:53;9.68;;;6.22;;
50128;SDS011;36026;45.478;9.224;2023-02-28T04:22:57;10.15;;;6.07;;
50128;SDS011;36026;45.478;9.224;2023-02-28T04:26:00;9.25;;;6.32;;
50128;SDS011;36026;45.478;9.224;2023-02-28T04:29:03;10.43;;;6.27;;
50128;SDS011;36026;45.478;9.224;2023-02-28T04:32:07;9.50;;;5.88;;
50128;SDS011;36026;45.478;9.224;2023-02-28T04:35:11;7.25;;;5.10;;
50128;SDS011;36026;45.478;9.224;2023-02-28T04:42:33;9.43;;;6.40;;
50128;SDS011;36026;45.478;9.224;2023-02-28T04:48:44;10.63;;;6.00;;
50128;SDS011;36026;45.478;9.224;2023-02-28T04:51:46;10.70;;;6.00;;
50128;SDS011;36026;45.478;9.224;2023-02-28T04:54:50;8.85;;;5.43;;
50128;SDS011;36026;45.478;9.224;2023-02-28T05:01:21;9.43;;;5.85;;
50128;SDS011;36026;45.478;9.224;2023-02-28T05:04:24;10.70;;;5.78;;
50128;SDS011;36026;45.478;9.224;2023-02-28T05:07:36;10.40;;;6.00;;
50128;SDS011;36026;45.478;9.224;2023-02-28T05:10:39;9.90;;;6.22;;
50128;SDS011;36026;45.478;9.224;2023-02-28T05:13:42;10.57;;;5.88;;
50128;SDS011;36026;45.478;9.224;2023-02-28T05:17:01;10.60;;;5.75;;
50128;SDS011;36026;45.478;9.224;2023-02-28T05:20:21;8.18;;;5.25;;
50128;SDS011;36026;45.478;9.224;2023-02-28T05:23:24;8.80;;;5.80;;
50128;SDS011;36026;45.478;9.224;2023-02-28T05:26:26;10.23;;;5.63;;
50128;SDS011;36026;45.478;9.224;2023-02-28T05:29:30;10.75;;;5.70;;
50128;SDS011;36026;45.478;9.224;2023-02-28T05:32:33;8.82;;;5.93;;
50128;SDS011;36026;45.478;9.224;2023-02-28T05:35:36;8.95;;;6.07;;
50128;SDS011;36026;45.478;9.224;2023-02-28T05:38:42;11.40;;;5.82;;
50128;SDS011;36026;45.478;9.224;2023-02-28T05:41:44;9.27;;;6.28;;
50128;SDS011;36026;45.478;9.224;2023-02-28T05:44:47;8.85;;;6.07;;
50128;SDS011;36026;45.478;9.224;2023-02-28T05:47:53;9.53;;;6.30;;
50128;SDS011;36026;45.478;9.224;2023-02-28T05:50:56;10.85;;;6.28;;
50128;SDS011;36026;45.478;9.224;2023-02-28T05:53:59;11.30;;;6.68;;
50128;SDS011;36026;45.478;9.224;2023-02-28T05:57:01;11.98;;;6.85;;
50128;SDS011;36026;45.478;9.224;2023-02-28T06:00:05;11.30;;;6.70;;
50128;SDS011;36026;45.478;9.224;2023-02-28T06:03:22;10.15;;;6.50;;
50128;SDS011;36026;45.478;9.224;2023-02-28T06:06:24;13.50;;;6.35;;
50128;SDS011;36026;45.478;9.224;2023-02-28T06:09:26;10.00;;;6.30;;
50128;SDS011;36026;45.478;9.224;2023-02-28T06:12:28;10.25;;;6.70;;
50128;SDS011;36026;45.478;9.224;2023-02-28T06:15:32;9.55;;;6.35;;
50128;SDS011;36026;45.478;9.224;2023-02-28T06:18:43;13.98;;;7.10;;
50128;SDS011;36026;45.478;9.224;2023-02-28T06:21:48;10.45;;;5.75;;
50128;SDS011;36026;45.478;9.224;2023-02-28T06:24:52;10.00;;;6.65;;
50128;SDS011;36026;45.478;9.224;2023-02-28T06:27:55;11.05;;;6.97;;
50128;SDS011;36026;45.478;9.224;2023-02-28T06:31:04;11.13;;;6.32;;
50128;SDS011;36026;45.478;9.224;2023-02-28T06:34:07;10.70;;;6.45;;
50128;SDS011;36026;45.478;9.224;2023-02-28T06:37:11;13.20;;;7.60;;
50128;SDS011;36026;45.478;9.224;2023-02-28T06:40:16;12.48;;;7.03;;
50128;SDS011;36026;45.478;9.224;2023-02-28T06:43:18;12.65;;;7.13;;
50128;SDS011;36026;45.478;9.224;2023-02-28T06:46:22;12.80;;;6.93;;
50128;SDS011;36026;45.478;9.224;2023-02-28T06:49:24;13.80;;;7.10;;
50128;SDS011;36026;45.478;9.224;2023-02-28T06:52:26;12.32;;;7.40;;
50128;SDS011;36026;45.478;9.224;2023-02-28T06:55:28;12.25;;;7.35;;
50128;SDS011;36026;45.478;9.224;2023-02-28T06:58:30;17.20;;;8.73;;
50128;SDS011;36026;45.478;9.224;2023-02-28T07:01:35;12.75;;;7.25;;
50128;SDS011;36026;45.478;9.224;2023-02-28T07:04:37;14.32;;;7.95;;
50128;SDS011;36026;45.478;9.224;2023-02-28T07:07:44;11.53;;;6.90;;
50128;SDS011;36026;45.478;9.224;2023-02-28T07:10:47;14.18;;;8.10;;
50128;SDS011;36026;45.478;9.224;2023-02-28T07:13:49;11.52;;;7.30;;
50128;SDS011;36026;45.478;9.224;2023-02-28T07:16:52;15.55;;;8.18;;
50128;SDS011;36026;45.478;9.224;2023-02-28T07:19:54;14.43;;;8.07;;
50128;SDS011;36026;45.478;9.224;2023-02-28T07:22:56;12.40;;;7.78;;
50128;SDS011;36026;45.478;9.224;2023-02-28T07:25:57;12.60;;;8.35;;
50128;SDS011;36026;45.478;9.224;2023-02-28T07:29:02;12.27;;;8.00;;
50128;SDS011;36026;45.478;9.224;2023-02-28T07:32:06;16.58;;;8.30;;
50128;SDS011;36026;45.478;9.224;2023-02-28T07:35:08;16.02;;;7.90;;
50128;SDS011;36026;45.478;9.224;2023-02-28T07:38:10;14.98;;;7.75;;
50128;SDS011;36026;45.478;9.224;2023-02-28T07:41:13;14.90;;;8.13;;
50128;SDS011;36026;45.478;9.224;2023-02-28T07:44:15;13.90;;;8.68;;
50128;SDS011;36026;45.478;9.224;2023-02-28T07:47:19;12.32;;;8.27;;
50128;SDS011;36026;45.478;9.224;2023-02-28T07:50:21;14.60;;;8.98;;
50128;SDS011;36026;45.478;9.224;2023-02-28T07:53:23;18.88;;;8.93;;
50128;SDS011;36026;45.478;9.224;2023-02-28T07:56:25;16.55;;;8.52;;
50128;SDS011;36026;45.478;9.224;2023-02-28T07:59:27;18.25;;;9.65;;
50128;SDS011;36026;45.478;9.224;2023-02-28T08:02:30;14.00;;;9.10;;
50128;SDS011;36026;45.478;9.224;2023-02-28T08:05:31;15.10;;;9.77;;
50128;SDS011;36026;45.478;9.224;2023-02-28T08:08:34;17.05;;;9.65;;
50128;SDS011;36026;45.478;9.224;2023-02-28T08:11:35;19.05;;;10.07;;
50128;SDS011;36026;45.478;9.224;2023-02-28T08:14:38;17.38;;;9.18;;
50128;SDS011;36026;45.478;9.224;2023-02-28T08:20:59;14.75;;;9.65;;
50128;SDS011;36026;45.478;9.224;2023-02-28T08:24:01;15.25;;;9.85;;
50128;SDS011;36026;45.478;9.224;2023-02-28T08:27:02;20.73;;;9.93;;
50128;SDS011;36026;45.478;9.224;2023-02-28T08:30:05;14.48;;;8.90;;
50128;SDS011;36026;45.478;9.224;2023-02-28T08:33:11;16.40;;;10.23;;
50128;SDS011;36026;45.478;9.224;2023-02-28T08:36:12;16.80;;;10.05;;
50128;SDS011;36026;45.478;9.224;2023-02-28T08:42:32;15.02;;;9.43;;
50128;SDS011;36026;45.478;9.224;2023-02-28T08:45:34;15.90;;;9.60;;
50128;SDS011;36026;45.478;9.224;2023-02-28T08:48:40;17.85;;;9.10;;
50128;SDS011;36026;45.478;9.224;2023-02-28T08:55:10;13.13;;;7.88;;
50128;SDS011;36026;45.478;9.224;2023-02-28T08:58:12;12.38;;;7.32;;
50128;SDS011;36026;45.478;9.224;2023-02-28T09:01:15;11.73;;;6.88;;
50128;SDS011;36026;45.478;9.224;2023-02-28T09:04:22;9.63;;;7.22;;
50128;SDS011;36026;45.478;9.224;2023-02-28T09:07:25;10.57;;;6.63;;
50128;SDS011;36026;45.478;9.224;2023-02-28T09:10:30;10.52;;;6.80;;
50128;SDS011;36026;45.478;9.224;2023-02-28T09:13:32;11.65;;;7.88;;
50128;SDS011;36026;45.478;9.224;2023-02-28T09:21:09;9.77;;;6.97;;
50128;SDS011;36026;45.478;9.224;2023-02-28T09:24:14;11.65;;;7.20;;
50128;SDS011;36026;45.478;9.224;2023-02-28T09:27:18;11.02;;;7.30;;
50128;SDS011;36026;45.478;9.224;2023-02-28T09:38:07;11.05;;;7.50;;
50128;SDS011;36026;45.478;9.224;2023-02-28T09:41:11;12.38;;;7.85;;
50128;SDS011;36026;45.478;9.224;2023-02-28T09:44:16;15.27;;;7.75;;
50128;SDS011;36026;45.478;9.224;2023-02-28T09:51:04;11.40;;;7.75;;
50128;SDS011;36026;45.478;9.224;2023-02-28T09:54:14;11.73;;;8.20;;
50128;SDS011;36026;45.478;9.224;2023-02-28T10:08:37;12.25;;;7.75;;
50128;SDS011;36026;45.478;9.224;2023-02-28T10:11:46;12.52;;;8.00;;
50128;SDS011;36026;45.478;9.224;2023-02-28T10:14:52;14.98;;;7.53;;
50128;SDS011;36026;45.478;9.224;2023-02-28T10:17:56;10.02;;;7.05;;
50128;SDS011;36026;45.478;9.224;2023-02-28T10:21:40;14.10;;;8.55;;
50128;SDS011;36026;45.478;9.224;2023-02-28T10:25:05;12.90;;;7.93;;
50128;SDS011;36026;45.478;9.224;2023-02-28T10:28:20;11.48;;;7.65;;
50128;SDS011;36026;45.478;9.224;2023-02-28T10:31:22;9.40;;;7.00;;
50128;SDS011;36026;45.478;9.224;2023-02-28T10:34:24;12.88;;;7.85;;
50128;SDS011;36026;45.478;9.224;2023-02-28T10:41:37;13.25;;;8.35;;
50128;SDS011;36026;45.478;9.224;2023-02-28T10:48:26;11.27;;;8.20;;
50128;SDS011;36026;45.478;9.224;2023-02-28T10:55:19;12.10;;;8.35;;
50128;SDS011;36026;45.478;9.224;2023-02-28T10:58:54;14.10;;;8.57;;
50128;SDS011;36026;45.478;9.224;2023-02-28T11:02:00;14.18;;;9.40;;
50128;SDS011;36026;45.478;9.224;2023-02-28T11:05:03;13.52;;;9.13;;
50128;SDS011;36026;45.478;9.224;2023-02-28T11:15:26;14.20;;;9.45;;
50128;SDS011;36026;45.478;9.224;2023-02-28T11:18:48;12.40;;;9.48;;
50128;SDS011;36026;45.478;9.224;2023-02-28T11:22:02;15.63;;;10.30;;
50128;SDS011;36026;45.478;9.224;2023-02-28T11:25:06;14.02;;;10.05;;
50128;SDS011;36026;45.478;9.224;2023-02-28T11:28:23;15.48;;;10.52;;
50128;SDS011;36026;45.478;9.224;2023-02-28T11:31:32;16.90;;;10.23;;
50128;SDS011;36026;45.478;9.224;2023-02-28T11:34:36;13.98;;;10.63;;
50128;SDS011;36026;45.478;9.224;2023-02-28T11:37:42;15.75;;;10.57;;
50128;SDS011;36026;45.478;9.224;2023-02-28T11:43:53;14.52;;;10.73;;
50128;SDS011;36026;45.478;9.224;2023-02-28T11:55:01;14.90;;;10.93;;
50128;SDS011;36026;45.478;9.224;2023-02-28T11:58:42;17.77;;;11.60;;
50128;SDS011;36026;45.478;9.224;2023-02-28T12:01:54;17.52;;;12.30;;
50128;SDS011;36026;45.478;9.224;2023-02-28T12:05:18;15.35;;;10.82;;
50128;SDS011;36026;45.478;9.224;2023-02-28T12:08:30;15.25;;;11.57;;
50128;SDS011;36026;45.478;9.224;2023-02-28T12:11:45;15.38;;;11.75;;
50128;SDS011;36026;45.478;9.224;2023-02-28T12:14:56;17.42;;;12.63;;
50128;SDS011;36026;45.478;9.224;2023-02-28T12:18:45;18.63;;;12.13;;
50128;SDS011;36026;45.478;9.224;2023-02-28T12:21:59;15.45;;;11.65;;
50128;SDS011;36026;45.478;9.224;2023-02-28T12:25:28;15.23;;;12.35;;
50128;SDS011;36026;45.478;9.224;2023-02-28T12:28:51;15.45;;;12.35;;
50128;SDS011;36026;45.478;9.224;2023-02-28T12:31:58;16.83;;;12.77;;
50128;SDS011;36026;45.478;9.224;2023-02-28T12:35:04;27.42;;;21.38;;
50128;SDS011;36026;45.478;9.224;2023-02-28T12:38:14;69.60;;;45.67;;
50128;SDS011;36026;45.478;9.224;2023-02-28T12:41:22;20.92;;;15.90;;
50128;SDS011;36026;45.478;9.224;2023-02-28T12:44:32;16.13;;;12.30;;
50128;SDS011;36026;45.478;9.224;2023-02-28T12:47:36;17.33;;;13.25;;
50128;SDS011;36026;45.478;9.224;2023-02-28T12:50:43;16.15;;;12.38;;
50128;SDS011;36026;45.478;9.224;2023-02-28T12:53:49;14.50;;;12.77;;
50128;SDS011;36026;45.478;9.224;2023-02-28T12:57:08;14.80;;;12.50;;
50128;SDS011;36026;45.478;9.224;2023-02-28T13:00:13;16.35;;;13.13;;
50128;SDS011;36026;45.478;9.224;2023-02-28T13:03:21;16.90;;;13.23;;
50128;SDS011;36026;45.478;9.224;2023-02-28T13:06:41;15.48;;;12.85;;
50128;SDS011;36026;45.478;9.224;2023-02-28T13:09:52;17.35;;;13.30;;
50128;SDS011;36026;45.478;9.224;2023-02-28T13:12:57;19.83;;;14.02;;
50128;SDS011;36026;45.478;9.224;2023-02-28T13:16:08;18.58;;;12.95;;
50128;SDS011;36026;45.478;9.224;2023-02-28T13:19:11;16.15;;;12.32;;
50128;SDS011;36026;45.478;9.224;2023-02-28T13:22:17;16.15;;;12.95;;
50128;SDS011;36026;45.478;9.224;2023-02-28T13:29:00;16.70;;;12.40;;
50128;SDS011;36026;45.478;9.224;2023-02-28T13:35:45;16.35;;;12.15;;
50128;SDS011;36026;45.478;9.224;2023-02-28T13:38:51;19.17;;;11.90;;
50128;SDS011;36026;45.478;9.224;2023-02-28T13:41:53;15.88;;;11.93;;
50128;SDS011;36026;45.478;9.224;2023-02-28T13:48:26;57.08;;;37.10;;
50128;SDS011;36026;45.478;9.224;2023-02-28T13:51:38;41.85;;;29.35;;
50128;SDS011;36026;45.478;9.224;2023-02-28T13:55:03;15.57;;;13.27;;
50128;SDS011;36026;45.478;9.224;2023-02-28T13:58:28;14.80;;;12.43;;
50128;SDS011;36026;45.478;9.224;2023-02-28T14:01:44;15.20;;;12.50;;
50128;SDS011;36026;45.478;9.224;2023-02-28T14:05:01;16.08;;;12.82;;
50128;SDS011;36026;45.478;9.224;2023-02-28T14:08:07;16.23;;;12.80;;
50128;SDS011;36026;45.478;9.224;2023-02-28T14:11:23;17.83;;;12.88;;
50128;SDS011;36026;45.478;9.224;2023-02-28T14:18:27;17.25;;;13.10;;
50128;SDS011;36026;45.478;9.224;2023-02-28T14:21:32;18.33;;;12.93;;
50128;SDS011;36026;45.478;9.224;2023-02-28T14:24:46;17.35;;;14.45;;
50128;SDS011;36026;45.478;9.224;2023-02-28T14:28:06;17.10;;;12.75;;
50128;SDS011;36026;45.478;9.224;2023-02-28T14:31:44;17.38;;;13.52;;
50128;SDS011;36026;45.478;9.224;2023-02-28T14:38:14;15.75;;;13.00;;
50128;SDS011;36026;45.478;9.224;2023-02-28T14:41:22;15.82;;;13.35;;
50128;SDS011;36026;45.478;9.224;2023-02-28T14:44:26;16.73;;;13.20;;
50128;SDS011;36026;45.478;9.224;2023-02-28T14:51:01;19.90;;;12.75;;
50128;SDS011;36026;45.478;9.224;2023-02-28T14:54:04;16.27;;;12.40;;
50128;SDS011;36026;45.478;9.224;2023-02-28T14:57:06;19.63;;;13.55;;
50128;SDS011;36026;45.478;9.224;2023-02-28T15:00:24;16.80;;;13.68;;
50128;SDS011;36026;45.478;9.224;2023-02-28T15:03:30;17.02;;;13.60;;
50128;SDS011;36026;45.478;9.224;2023-02-28T15:06:35;17.85;;;14.07;;
50128;SDS011;36026;45.478;9.224;2023-02-28T15:09:43;17.10;;;12.63;;
50128;SDS011;36026;45.478;9.224;2023-02-28T15:12:46;16.10;;;13.73;;
50128;SDS011;36026;45.478;9.224;2023-02-28T15:15:53;16.60;;;13.57;;
50128;SDS011;36026;45.478;9.224;2023-02-28T15:18:57;16.77;;;13.23;;
50128;SDS011;36026;45.478;9.224;2023-02-28T15:22:03;15.73;;;14.05;;
50128;SDS011;36026;45.478;9.224;2023-02-28T15:25:06;17.48;;;13.50;;
50128;SDS011;36026;45.478;9.224;2023-02-28T15:28:12;16.67;;;13.85;;
50128;SDS011;36026;45.478;9.224;2023-02-28T15:31:20;15.00;;;13.05;;
50128;SDS011;36026;45.478;9.224;2023-02-28T15:34:27;17.30;;;13.68;;
50128;SDS011;36026;45.478;9.224;2023-02-28T15:37:39;14.95;;;12.98;;
50128;SDS011;36026;45.478;9.224;2023-02-28T15:40:43;16.30;;;12.57;;
50128;SDS011;36026;45.478;9.224;2023-02-28T15:47:30;16.48;;;13.18;;
50128;SDS011;36026;45.478;9.224;2023-02-28T15:50:32;18.42;;;13.90;;
50128;SDS011;36026;45.478;9.224;2023-02-28T15:53:36;19.38;;;15.13;;
50128;SDS011;36026;45.478;9.224;2023-02-28T15:56:43;18.13;;;14.55;;
50128;SDS011;36026;45.478;9.224;2023-02-28T15:59:49;19.33;;;14.25;;
50128;SDS011;36026;45.478;9.224;2023-02-28T16:02:53;17.60;;;14.43;;
50128;SDS011;36026;45.478;9.224;2023-02-28T16:09:37;20.13;;;15.32;;
50128;SDS011;36026;45.478;9.224;2023-02-28T16:12:39;22.42;;;15.00;;
50128;SDS011;36026;45.478;9.224;2023-02-28T16:15:42;20.58;;;14.35;;
50128;SDS011;36026;45.478;9.224;2023-02-28T16:18:45;20.97;;;14.00;;
50128;SDS011;36026;45.478;9.224;2023-02-28T16:21:47;20.70;;;14.70;;
50128;SDS011;36026;45.478;9.224;2023-02-28T16:24:50;20.73;;;14.68;;
50128;SDS011;36026;45.478;9.224;2023-02-28T16:27:53;21.27;;;14.27;;
50128;SDS011;36026;45.478;9.224;2023-02-28T16:30:57;19.65;;;13.48;;
50128;SDS011;36026;45.478;9.224;2023-02-28T16:34:06;19.02;;;12.88;;
50128;SDS011;36026;45.478;9.224;2023-02-28T16:37:11;20.50;;;14.75;;
50128;SDS011;36026;45.478;9.224;2023-02-28T16:40:16;19.95;;;14.70;;
50128;SDS011;36026;45.478;9.224;2023-02-28T16:43:26;23.42;;;14.85;;
50128;SDS011;36026;45.478;9.224;2023-02-28T16:46:33;19.98;;;14.05;;
50128;SDS011;36026;45.478;9.224;2023-02-28T16:49:36;22.83;;;14.93;;
50128;SDS011;36026;45.478;9.224;2023-02-28T16:52:42;20.77;;;13.48;;
50128;SDS011;36026;45.478;9.224;2023-02-28T16:56:06;19.58;;;12.73;;
50128;SDS011;36026;45.478;9.224;2023-02-28T16:59:15;21.83;;;13.45;;
50128;SDS011;36026;45.478;9.224;2023-02-28T17:02:27;20.98;;;13.13;;
50128;SDS011;36026;45.478;9.224;2023-02-28T17:05:29;20.95;;;14.13;;
50128;SDS011;36026;45.478;9.224;2023-02-28T17:08:35;21.58;;;14.45;;
50128;SDS011;36026;45.478;9.224;2023-02-28T17:11:39;21.98;;;15.38;;
50128;SDS011;36026;45.478;9.224;2023-02-28T17:14:42;24.63;;;14.95;;
50128;SDS011;36026;45.478;9.224;2023-02-28T17:17:54;21.00;;;15.07;;
50128;SDS011;36026;45.478;9.224;2023-02-28T17:20:57;25.23;;;15.30;;
50128;SDS011;36026;45.478;9.224;2023-02-28T17:24:00;28.10;;;15.93;;
50128;SDS011;36026;45.478;9.224;2023-02-28T17:27:19;21.83;;;14.95;;
50128;SDS011;36026;45.478;9.224;2023-02-28T17:30:23;22.27;;;15.07;;
50128;SDS011;36026;45.478;9.224;2023-02-28T17:33:36;23.42;;;15.18;;
50128;SDS011;36026;45.478;9.224;2023-02-28T17:36:40;22.42;;;14.73;;
50128;SDS011;36026;45.478;9.224;2023-02-28T17:39:44;25.15;;;15.32;;
50128;SDS011;36026;45.478;9.224;2023-02-28T17:42:49;28.42;;;15.93;;
50128;SDS011;36026;45.478;9.224;2023-02-28T17:45:58;24.35;;;15.45;;
50128;SDS011;36026;45.478;9.224;2023-02-28T17:49:00;24.48;;;16.13;;
50128;SDS011;36026;45.478;9.224;2023-02-28T17:52:02;23.40;;;15.45;;
50128;SDS011;36026;45.478;9.224;2023-02-28T17:55:04;20.70;;;14.93;;
50128;SDS011;36026;45.478;9.224;2023-02-28T17:58:09;24.50;;;15.63;;
50128;SDS011;36026;45.478;9.224;2023-02-28T18:01:12;26.70;;;15.60;;
50128;SDS011;36026;45.478;9.224;2023-02-28T18:04:14;23.23;;;13.93;;
50128;SDS011;36026;45.478;9.224;2023-02-28T18:07:16;20.02;;;14.57;;
50128;SDS011;36026;45.478;9.224;2023-02-28T18:10:20;20.80;;;13.60;;
50128;SDS011;36026;45.478;9.224;2023-02-28T18:16:39;21.75;;;14.18;;
50128;SDS011;36026;45.478;9.224;2023-02-28T18:19:41;21.30;;;14.25;;
50128;SDS011;36026;45.478;9.224;2023-02-28T18:26:35;20.17;;;13.57;;
50128;SDS011;36026;45.478;9.224;2023-02-28T18:29:40;22.73;;;13.52;;
50128;SDS011;36026;45.478;9.224;2023-02-28T18:32:51;19.10;;;13.23;;
50128;SDS011;36026;45.478;9.224;2023-02-28T18:35:56;19.13;;;13.98;;
50128;SDS011;36026;45.478;9.224;2023-02-28T18:38:59;24.50;;;14.48;;
50128;SDS011;36026;45.478;9.224;2023-02-28T18:45:55;21.67;;;14.18;;
50128;SDS011;36026;45.478;9.224;2023-02-28T18:49:03;21.02;;;13.88;;
50128;SDS011;36026;45.478;9.224;2023-02-28T18:52:11;21.80;;;13.73;;
50128;SDS011;36026;45.478;9.224;2023-02-28T18:58:41;23.25;;;13.93;;
50128;SDS011;36026;45.478;9.224;2023-02-28T19:01:46;21.33;;;13.25;;
50128;SDS011;36026;45.478;9.224;2023-02-28T19:04:49;21.70;;;13.95;;
50128;SDS011;36026;45.478;9.224;2023-02-28T19:07:51;19.15;;;13.00;;
50128;SDS011;36026;45.478;9.224;2023-02-28T19:10:54;21.33;;;13.55;;
50128;SDS011;36026;45.478;9.224;2023-02-28T19:14:17;24.92;;;13.88;;
50128;SDS011;36026;45.478;9.224;2023-02-28T19:17:22;23.45;;;13.23;;
50128;SDS011;36026;45.478;9.224;2023-02-28T19:20:26;22.67;;;14.50;;
50128;SDS011;36026;45.478;9.224;2023-02-28T19:23:35;19.83;;;13.30;;
50128;SDS011;36026;45.478;9.224;2023-02-28T19:26:51;18.73;;;12.85;;
50128;SDS011;36026;45.478;9.224;2023-02-28T19:30:02;21.85;;;14.10;;
50128;SDS011;36026;45.478;9.224;2023-02-28T19:33:07;23.50;;;15.05;;
50128;SDS011;36026;45.478;9.224;2023-02-28T19:36:15;22.92;;;13.75;;
50128;SDS011;36026;45.478;9.224;2023-02-28T19:39:17;27.65;;;14.10;;
50128;SDS011;36026;45.478;9.224;2023-02-28T19:45:55;25.42;;;15.90;;
50128;SDS011;36026;45.478;9.224;2023-02-28T19:48:59;21.05;;;14.18;;
50128;SDS011;36026;45.478;9.224;2023-02-28T19:52:01;21.42;;;14.63;;
50128;SDS011;36026;45.478;9.224;2023-02-28T19:55:21;25.20;;;15.23;;
50128;SDS011;36026;45.478;9.224;2023-02-28T19:58:23;24.85;;;14.23;;
50128;SDS011;36026;45.478;9.224;2023-02-28T20:01:25;23.25;;;14.65;;
50128;SDS011;36026;45.478;9.224;2023-02-28T20:04:29;24.02;;;14.63;;
50128;SDS011;36026;45.478;9.224;2023-02-28T20:08:52;19.85;;;12.98;;
50128;SDS011;36026;45.478;9.224;2023-02-28T20:11:02;26.60;;;15.13;;
50128;SDS011;36026;45.478;9.224;2023-02-28T20:14:05;21.75;;;14.07;;
50128;SDS011;36026;45.478;9.224;2023-02-28T20:17:07;22.15;;;14.38;;
50128;SDS011;36026;45.478;9.224;2023-02-28T20:20:16;24.90;;;14.43;;
50128;SDS011;36026;45.478;9.224;2023-02-28T20:27:03;26.17;;;14.52;;
50128;SDS011;36026;45.478;9.224;2023-02-28T20:30:05;21.65;;;14.15;;
50128;SDS011;36026;45.478;9.224;2023-02-28T20:33:17;21.85;;;13.82;;
50128;SDS011;36026;45.478;9.224;2023-02-28T20:36:24;21.02;;;14.25;;
50128;SDS011;36026;45.478;9.224;2023-02-28T20:42:56;24.48;;;14.15;;
50128;SDS011;36026;45.478;9.224;2023-02-28T20:46:02;20.05;;;13.90;;
50128;SDS011;36026;45.478;9.224;2023-02-28T20:49:22;22.67;;;14.30;;
50128;SDS011;36026;45.478;9.224;2023-02-28T21:02:55;23.70;;;14.07;;
50128;SDS011;36026;45.478;9.224;2023-02-28T21:06:08;23.05;;;14.50;;
50128;SDS011;36026;45.478;9.224;2023-02-28T21:09:11;26.30;;;15.38;;
50128;SDS011;36026;45.478;9.224;2023-02-28T21:19:59;25.05;;;14.88;;
50128;SDS011;36026;45.478;9.224;2023-02-28T21:23:24;23.20;;;15.18;;
50128;SDS011;36026;45.478;9.224;2023-02-28T21:26:49;25.77;;;15.07;;